sensor_id;sensor_type;location;lat;lon;timestamp;P1;durP1;ratioP1;P2;durP2;ratioP2
12556;SDS011;6344;49.932;8.308;2023-07-16T00:00:57;5.03;;;4.63;;
12556;SDS011;6344;49.932;8.308;2023-07-16T00:03:23;8.43;;;4.97;;
12556;SDS011;6344;49.932;8.308;2023-07-16T00:05:50;4.57;;;4.27;;
12556;SDS011;6344;49.932;8.308;2023-07-16T00:08:17;5.20;;;4.80;;
12556;SDS011;6344;49.932;8.308;2023-07-16T00:10:45;5.47;;;4.63;;
12556;SDS011;6344;49.932;8.308;2023-07-16T00:13:11;4.70;;;4.33;;
12556;SDS011;6344;49.932;8.308;2023-07-16T00:15:38;5.17;;;4.00;;
12556;SDS011;6344;49.932;8.308;2023-07-16T00:18:05;4.10;;;3.80;;
12556;SDS011;6344;49.932;8.308;2023-07-16T00:20:31;4.70;;;4.30;;
12556;SDS011;6344;49.932;8.308;2023-07-16T00:22:58;4.70;;;4.30;;
12556;SDS011;6344;49.932;8.308;2023-07-16T00:25:25;5.97;;;4.27;;
12556;SDS011;6344;49.932;8.308;2023-07-16T00:27:53;7.73;;;4.17;;
12556;SDS011;6344;49.932;8.308;2023-07-16T00:30:19;4.87;;;4.33;;
12556;SDS011;6344;49.932;8.308;2023-07-16T00:32:46;7.13;;;5.20;;
12556;SDS011;6344;49.932;8.308;2023-07-16T00:35:13;5.43;;;4.47;;
12556;SDS011;6344;49.932;8.308;2023-07-16T00:37:39;4.63;;;4.33;;
12556;SDS011;6344;49.932;8.308;2023-07-16T00:40:06;5.03;;;4.37;;
12556;SDS011;6344;49.932;8.308;2023-07-16T00:42:34;6.63;;;4.47;;
12556;SDS011;6344;49.932;8.308;2023-07-16T00:45:02;5.10;;;4.70;;
12556;SDS011;6344;49.932;8.308;2023-07-16T00:47:34;8.40;;;4.90;;
12556;SDS011;6344;49.932;8.308;2023-07-16T00:50:01;4.43;;;4.13;;
12556;SDS011;6344;49.932;8.308;2023-07-16T00:52:28;4.57;;;4.17;;
12556;SDS011;6344;49.932;8.308;2023-07-16T00:54:55;4.70;;;4.30;;
12556;SDS011;6344;49.932;8.308;2023-07-16T00:57:22;4.70;;;4.00;;
12556;SDS011;6344;49.932;8.308;2023-07-16T00:59:48;3.83;;;3.60;;
12556;SDS011;6344;49.932;8.308;2023-07-16T01:02:16;4.47;;;4.07;;
12556;SDS011;6344;49.932;8.308;2023-07-16T01:04:43;4.27;;;3.97;;
12556;SDS011;6344;49.932;8.308;2023-07-16T01:07:11;5.13;;;4.13;;
12556;SDS011;6344;49.932;8.308;2023-07-16T01:09:41;4.80;;;4.47;;
12556;SDS011;6344;49.932;8.308;2023-07-16T01:12:08;5.23;;;4.73;;
12556;SDS011;6344;49.932;8.308;2023-07-16T01:14:35;5.20;;;4.80;;
12556;SDS011;6344;49.932;8.308;2023-07-16T01:17:04;5.67;;;5.27;;
12556;SDS011;6344;49.932;8.308;2023-07-16T01:19:34;5.20;;;4.77;;
12556;SDS011;6344;49.932;8.308;2023-07-16T01:22:04;5.13;;;4.70;;
12556;SDS011;6344;49.932;8.308;2023-07-16T01:24:59;6.17;;;5.27;;
12556;SDS011;6344;49.932;8.308;2023-07-16T01:27:44;5.37;;;4.87;;
12556;SDS011;6344;49.932;8.308;2023-07-16T01:30:26;5.07;;;4.43;;
12556;SDS011;6344;49.932;8.308;2023-07-16T01:32:54;4.53;;;4.13;;
12556;SDS011;6344;49.932;8.308;2023-07-16T01:35:21;5.83;;;4.13;;
12556;SDS011;6344;49.932;8.308;2023-07-16T01:37:48;5.50;;;3.93;;
12556;SDS011;6344;49.932;8.308;2023-07-16T01:40:15;3.60;;;3.40;;
12556;SDS011;6344;49.932;8.308;2023-07-16T01:42:42;8.03;;;3.90;;
12556;SDS011;6344;49.932;8.308;2023-07-16T01:45:08;4.97;;;4.10;;
12556;SDS011;6344;49.932;8.308;2023-07-16T01:47:39;4.77;;;3.23;;
12556;SDS011;6344;49.932;8.308;2023-07-16T01:50:11;5.27;;;3.70;;
12556;SDS011;6344;49.932;8.308;2023-07-16T01:52:38;5.57;;;3.47;;
12556;SDS011;6344;49.932;8.308;2023-07-16T01:55:05;3.70;;;3.40;;
12556;SDS011;6344;49.932;8.308;2023-07-16T01:57:32;3.37;;;3.17;;
12556;SDS011;6344;49.932;8.308;2023-07-16T01:59:58;4.30;;;3.10;;
12556;SDS011;6344;49.932;8.308;2023-07-16T02:02:25;4.27;;;2.77;;
12556;SDS011;6344;49.932;8.308;2023-07-16T02:04:53;3.60;;;3.40;;
12556;SDS011;6344;49.932;8.308;2023-07-16T02:07:20;4.00;;;3.30;;
12556;SDS011;6344;49.932;8.308;2023-07-16T02:09:48;3.60;;;3.30;;
12556;SDS011;6344;49.932;8.308;2023-07-16T02:12:15;5.80;;;4.13;;
12556;SDS011;6344;49.932;8.308;2023-07-16T02:14:41;5.37;;;4.30;;
12556;SDS011;6344;49.932;8.308;2023-07-16T02:17:08;4.20;;;3.77;;
12556;SDS011;6344;49.932;8.308;2023-07-16T02:19:35;4.80;;;3.90;;
12556;SDS011;6344;49.932;8.308;2023-07-16T02:22:03;5.37;;;4.30;;
12556;SDS011;6344;49.932;8.308;2023-07-16T02:24:29;4.27;;;3.87;;
12556;SDS011;6344;49.932;8.308;2023-07-16T02:26:56;4.67;;;4.27;;
12556;SDS011;6344;49.932;8.308;2023-07-16T02:29:23;5.40;;;4.67;;
12556;SDS011;6344;49.932;8.308;2023-07-16T02:31:49;4.83;;;4.43;;
12556;SDS011;6344;49.932;8.308;2023-07-16T02:34:16;5.43;;;4.17;;
12556;SDS011;6344;49.932;8.308;2023-07-16T02:36:43;4.93;;;4.53;;
12556;SDS011;6344;49.932;8.308;2023-07-16T02:39:11;6.47;;;5.33;;
12556;SDS011;6344;49.932;8.308;2023-07-16T02:41:37;5.83;;;5.27;;
12556;SDS011;6344;49.932;8.308;2023-07-16T02:44:04;7.00;;;6.27;;
12556;SDS011;6344;49.932;8.308;2023-07-16T02:46:31;5.97;;;5.40;;
12556;SDS011;6344;49.932;8.308;2023-07-16T02:48:58;5.90;;;5.17;;
12556;SDS011;6344;49.932;8.308;2023-07-16T02:51:25;5.90;;;5.40;;
12556;SDS011;6344;49.932;8.308;2023-07-16T02:53:51;6.17;;;5.67;;
12556;SDS011;6344;49.932;8.308;2023-07-16T02:56:19;7.90;;;6.00;;
12556;SDS011;6344;49.932;8.308;2023-07-16T02:58:46;6.10;;;5.60;;
12556;SDS011;6344;49.932;8.308;2023-07-16T03:01:12;5.50;;;5.00;;
12556;SDS011;6344;49.932;8.308;2023-07-16T03:03:39;5.70;;;5.03;;
12556;SDS011;6344;49.932;8.308;2023-07-16T03:06:06;6.80;;;6.00;;
12556;SDS011;6344;49.932;8.308;2023-07-16T03:08:33;6.77;;;6.17;;
12556;SDS011;6344;49.932;8.308;2023-07-16T03:11:00;5.50;;;5.00;;
12556;SDS011;6344;49.932;8.308;2023-07-16T03:13:28;10.00;;;6.77;;
12556;SDS011;6344;49.932;8.308;2023-07-16T03:15:54;6.03;;;5.63;;
12556;SDS011;6344;49.932;8.308;2023-07-16T03:18:21;6.63;;;6.03;;
12556;SDS011;6344;49.932;8.308;2023-07-16T03:20:48;7.20;;;5.87;;
12556;SDS011;6344;49.932;8.308;2023-07-16T03:23:14;6.07;;;5.50;;
12556;SDS011;6344;49.932;8.308;2023-07-16T03:25:41;6.20;;;5.70;;
12556;SDS011;6344;49.932;8.308;2023-07-16T03:28:08;7.97;;;5.80;;
12556;SDS011;6344;49.932;8.308;2023-07-16T03:30:36;7.33;;;6.40;;
12556;SDS011;6344;49.932;8.308;2023-07-16T03:33:03;5.63;;;5.30;;
12556;SDS011;6344;49.932;8.308;2023-07-16T03:35:30;6.30;;;5.50;;
12556;SDS011;6344;49.932;8.308;2023-07-16T03:37:57;6.13;;;5.63;;
12556;SDS011;6344;49.932;8.308;2023-07-16T03:40:24;9.77;;;7.03;;
12556;SDS011;6344;49.932;8.308;2023-07-16T03:42:51;7.00;;;5.20;;
12556;SDS011;6344;49.932;8.308;2023-07-16T03:45:19;9.27;;;5.60;;
12556;SDS011;6344;49.932;8.308;2023-07-16T03:47:47;5.87;;;5.40;;
12556;SDS011;6344;49.932;8.308;2023-07-16T03:50:14;5.60;;;5.20;;
12556;SDS011;6344;49.932;8.308;2023-07-16T03:52:40;6.83;;;6.20;;
12556;SDS011;6344;49.932;8.308;2023-07-16T03:55:07;7.10;;;5.93;;
12556;SDS011;6344;49.932;8.308;2023-07-16T03:57:34;7.80;;;6.40;;
12556;SDS011;6344;49.932;8.308;2023-07-16T04:00:01;6.00;;;5.50;;
12556;SDS011;6344;49.932;8.308;2023-07-16T04:02:29;5.90;;;5.40;;
12556;SDS011;6344;49.932;8.308;2023-07-16T04:04:57;6.43;;;5.83;;
12556;SDS011;6344;49.932;8.308;2023-07-16T04:07:23;5.57;;;5.17;;
12556;SDS011;6344;49.932;8.308;2023-07-16T04:09:50;6.50;;;4.90;;
12556;SDS011;6344;49.932;8.308;2023-07-16T04:12:17;7.20;;;5.60;;
12556;SDS011;6344;49.932;8.308;2023-07-16T04:14:44;6.40;;;5.77;;
12556;SDS011;6344;49.932;8.308;2023-07-16T04:17:10;7.10;;;6.40;;
12556;SDS011;6344;49.932;8.308;2023-07-16T04:19:37;5.37;;;4.83;;
12556;SDS011;6344;49.932;8.308;2023-07-16T04:22:05;5.83;;;5.23;;
12556;SDS011;6344;49.932;8.308;2023-07-16T04:24:32;6.10;;;5.50;;
12556;SDS011;6344;49.932;8.308;2023-07-16T04:26:58;6.67;;;5.53;;
12556;SDS011;6344;49.932;8.308;2023-07-16T04:29:25;5.93;;;5.43;;
12556;SDS011;6344;49.932;8.308;2023-07-16T04:31:52;7.33;;;5.40;;
12556;SDS011;6344;49.932;8.308;2023-07-16T04:34:18;6.90;;;5.77;;
12556;SDS011;6344;49.932;8.308;2023-07-16T04:36:45;5.37;;;4.87;;
12556;SDS011;6344;49.932;8.308;2023-07-16T04:39:13;5.10;;;4.70;;
12556;SDS011;6344;49.932;8.308;2023-07-16T04:41:40;5.60;;;5.00;;
12556;SDS011;6344;49.932;8.308;2023-07-16T04:44:06;6.00;;;5.40;;
12556;SDS011;6344;49.932;8.308;2023-07-16T04:46:33;6.97;;;5.90;;
12556;SDS011;6344;49.932;8.308;2023-07-16T04:51:27;7.93;;;5.37;;
12556;SDS011;6344;49.932;8.308;2023-07-16T04:53:53;5.87;;;5.33;;
12556;SDS011;6344;49.932;8.308;2023-07-16T04:56:22;6.60;;;6.10;;
12556;SDS011;6344;49.932;8.308;2023-07-16T04:58:48;5.93;;;5.30;;
12556;SDS011;6344;49.932;8.308;2023-07-16T05:01:15;6.50;;;5.87;;
12556;SDS011;6344;49.932;8.308;2023-07-16T05:03:42;14.27;;;6.17;;
12556;SDS011;6344;49.932;8.308;2023-07-16T05:06:08;10.23;;;6.70;;
12556;SDS011;6344;49.932;8.308;2023-07-16T05:08:35;7.83;;;5.27;;
12556;SDS011;6344;49.932;8.308;2023-07-16T05:11:02;7.70;;;4.60;;
12556;SDS011;6344;49.932;8.308;2023-07-16T05:13:30;5.53;;;5.03;;
12556;SDS011;6344;49.932;8.308;2023-07-16T05:15:56;7.10;;;4.70;;
12556;SDS011;6344;49.932;8.308;2023-07-16T05:18:23;7.90;;;5.20;;
12556;SDS011;6344;49.932;8.308;2023-07-16T05:20:50;11.70;;;5.23;;
12556;SDS011;6344;49.932;8.308;2023-07-16T05:23:17;7.43;;;4.87;;
12556;SDS011;6344;49.932;8.308;2023-07-16T05:25:45;5.83;;;4.90;;
12556;SDS011;6344;49.932;8.308;2023-07-16T05:28:13;6.30;;;5.73;;
12556;SDS011;6344;49.932;8.308;2023-07-16T05:30:41;10.27;;;5.50;;
12556;SDS011;6344;49.932;8.308;2023-07-16T05:33:08;5.40;;;4.40;;
12556;SDS011;6344;49.932;8.308;2023-07-16T05:35:35;6.70;;;5.50;;
12556;SDS011;6344;49.932;8.308;2023-07-16T05:38:02;5.57;;;5.17;;
12556;SDS011;6344;49.932;8.308;2023-07-16T05:40:29;13.00;;;5.00;;
12556;SDS011;6344;49.932;8.308;2023-07-16T05:42:55;6.63;;;5.53;;
12556;SDS011;6344;49.932;8.308;2023-07-16T05:45:22;5.60;;;5.10;;
12556;SDS011;6344;49.932;8.308;2023-07-16T05:47:50;5.90;;;5.17;;
12556;SDS011;6344;49.932;8.308;2023-07-16T05:50:16;6.43;;;5.47;;
12556;SDS011;6344;49.932;8.308;2023-07-16T05:52:43;11.43;;;5.60;;
12556;SDS011;6344;49.932;8.308;2023-07-16T05:55:12;11.73;;;6.20;;
12556;SDS011;6344;49.932;8.308;2023-07-16T05:57:39;7.93;;;5.57;;
12556;SDS011;6344;49.932;8.308;2023-07-16T06:00:06;5.77;;;4.57;;
12556;SDS011;6344;49.932;8.308;2023-07-16T06:02:34;6.43;;;5.70;;
12556;SDS011;6344;49.932;8.308;2023-07-16T06:05:02;5.10;;;4.57;;
12556;SDS011;6344;49.932;8.308;2023-07-16T06:07:29;5.57;;;5.17;;
12556;SDS011;6344;49.932;8.308;2023-07-16T06:09:56;6.90;;;3.70;;
12556;SDS011;6344;49.932;8.308;2023-07-16T06:12:23;9.07;;;5.77;;
12556;SDS011;6344;49.932;8.308;2023-07-16T06:14:49;5.53;;;4.73;;
12556;SDS011;6344;49.932;8.308;2023-07-16T06:17:16;5.83;;;4.93;;
12556;SDS011;6344;49.932;8.308;2023-07-16T06:19:43;10.23;;;5.17;;
12556;SDS011;6344;49.932;8.308;2023-07-16T06:22:11;6.00;;;5.50;;
12556;SDS011;6344;49.932;8.308;2023-07-16T06:24:38;5.63;;;5.13;;
12556;SDS011;6344;49.932;8.308;2023-07-16T06:27:04;5.73;;;4.87;;
12556;SDS011;6344;49.932;8.308;2023-07-16T06:29:31;9.27;;;4.60;;
12556;SDS011;6344;49.932;8.308;2023-07-16T06:31:58;6.40;;;5.10;;
12556;SDS011;6344;49.932;8.308;2023-07-16T06:34:25;8.60;;;5.50;;
12556;SDS011;6344;49.932;8.308;2023-07-16T06:36:52;6.17;;;5.30;;
12556;SDS011;6344;49.932;8.308;2023-07-16T06:39:20;7.13;;;5.30;;
12556;SDS011;6344;49.932;8.308;2023-07-16T06:41:47;10.07;;;5.30;;
12556;SDS011;6344;49.932;8.308;2023-07-16T06:44:14;6.60;;;4.60;;
12556;SDS011;6344;49.932;8.308;2023-07-16T06:46:41;7.30;;;5.57;;
12556;SDS011;6344;49.932;8.308;2023-07-16T06:49:08;8.23;;;5.93;;
12556;SDS011;6344;49.932;8.308;2023-07-16T06:51:34;5.47;;;5.07;;
12556;SDS011;6344;49.932;8.308;2023-07-16T06:54:01;5.43;;;5.00;;
12556;SDS011;6344;49.932;8.308;2023-07-16T06:56:29;5.00;;;4.60;;
12556;SDS011;6344;49.932;8.308;2023-07-16T06:58:55;6.23;;;4.70;;
12556;SDS011;6344;49.932;8.308;2023-07-16T07:01:22;10.40;;;5.03;;
12556;SDS011;6344;49.932;8.308;2023-07-16T07:03:49;5.47;;;4.97;;
12556;SDS011;6344;49.932;8.308;2023-07-16T07:06:16;5.90;;;5.00;;
12556;SDS011;6344;49.932;8.308;2023-07-16T07:08:42;6.70;;;4.80;;
12556;SDS011;6344;49.932;8.308;2023-07-16T07:11:09;6.60;;;5.03;;
12556;SDS011;6344;49.932;8.308;2023-07-16T07:13:37;8.67;;;5.20;;
12556;SDS011;6344;49.932;8.308;2023-07-16T07:16:04;8.63;;;5.43;;
12556;SDS011;6344;49.932;8.308;2023-07-16T07:18:31;5.77;;;4.43;;
12556;SDS011;6344;49.932;8.308;2023-07-16T07:20:58;5.40;;;4.90;;
12556;SDS011;6344;49.932;8.308;2023-07-16T07:23:24;5.87;;;4.73;;
12556;SDS011;6344;49.932;8.308;2023-07-16T07:25:51;4.63;;;4.20;;
12556;SDS011;6344;49.932;8.308;2023-07-16T07:28:18;4.97;;;4.57;;
12556;SDS011;6344;49.932;8.308;2023-07-16T07:30:47;6.03;;;3.80;;
12556;SDS011;6344;49.932;8.308;2023-07-16T07:33:14;4.33;;;3.93;;
12556;SDS011;6344;49.932;8.308;2023-07-16T07:35:40;5.00;;;4.43;;
12556;SDS011;6344;49.932;8.308;2023-07-16T07:38:07;7.90;;;4.97;;
12556;SDS011;6344;49.932;8.308;2023-07-16T07:40:34;5.00;;;4.57;;
12556;SDS011;6344;49.932;8.308;2023-07-16T07:43:01;8.03;;;5.83;;
12556;SDS011;6344;49.932;8.308;2023-07-16T07:45:28;6.87;;;4.13;;
12556;SDS011;6344;49.932;8.308;2023-07-16T07:47:55;5.33;;;4.70;;
12556;SDS011;6344;49.932;8.308;2023-07-16T07:50:22;2.70;;;2.50;;
12556;SDS011;6344;49.932;8.308;2023-07-16T07:52:50;6.40;;;4.70;;
12556;SDS011;6344;49.932;8.308;2023-07-16T07:55:17;7.43;;;4.73;;
12556;SDS011;6344;49.932;8.308;2023-07-16T07:57:44;9.03;;;4.70;;
12556;SDS011;6344;49.932;8.308;2023-07-16T08:00:11;10.23;;;5.23;;
12556;SDS011;6344;49.932;8.308;2023-07-16T08:02:38;7.50;;;4.97;;
12556;SDS011;6344;49.932;8.308;2023-07-16T08:05:07;7.50;;;4.97;;
12556;SDS011;6344;49.932;8.308;2023-07-16T08:07:34;5.43;;;4.93;;
12556;SDS011;6344;49.932;8.308;2023-07-16T08:10:01;7.10;;;4.60;;
12556;SDS011;6344;49.932;8.308;2023-07-16T08:12:27;4.63;;;3.53;;
12556;SDS011;6344;49.932;8.308;2023-07-16T08:14:55;4.37;;;3.97;;
12556;SDS011;6344;49.932;8.308;2023-07-16T08:17:22;5.27;;;4.23;;
12556;SDS011;6344;49.932;8.308;2023-07-16T08:19:49;4.50;;;4.10;;
12556;SDS011;6344;49.932;8.308;2023-07-16T08:22:17;4.50;;;4.10;;
12556;SDS011;6344;49.932;8.308;2023-07-16T08:24:43;4.83;;;4.40;;
12556;SDS011;6344;49.932;8.308;2023-07-16T08:27:10;4.43;;;4.03;;
12556;SDS011;6344;49.932;8.308;2023-07-16T08:29:37;4.60;;;3.80;;
12556;SDS011;6344;49.932;8.308;2023-07-16T08:32:04;6.20;;;4.17;;
12556;SDS011;6344;49.932;8.308;2023-07-16T08:34:32;4.80;;;4.40;;
12556;SDS011;6344;49.932;8.308;2023-07-16T08:36:58;4.20;;;3.80;;
12556;SDS011;6344;49.932;8.308;2023-07-16T08:39:26;6.40;;;4.27;;
12556;SDS011;6344;49.932;8.308;2023-07-16T08:41:53;4.83;;;4.43;;
12556;SDS011;6344;49.932;8.308;2023-07-16T08:44:20;5.27;;;4.80;;
12556;SDS011;6344;49.932;8.308;2023-07-16T08:46:46;4.80;;;4.00;;
12556;SDS011;6344;49.932;8.308;2023-07-16T08:49:13;4.67;;;4.27;;
12556;SDS011;6344;49.932;8.308;2023-07-16T08:51:43;5.07;;;4.57;;
12556;SDS011;6344;49.932;8.308;2023-07-16T08:54:11;4.23;;;3.83;;
12556;SDS011;6344;49.932;8.308;2023-07-16T08:56:41;5.83;;;3.93;;
12556;SDS011;6344;49.932;8.308;2023-07-16T08:59:09;7.23;;;3.80;;
12556;SDS011;6344;49.932;8.308;2023-07-16T09:01:36;4.33;;;4.00;;
12556;SDS011;6344;49.932;8.308;2023-07-16T09:04:03;5.03;;;4.50;;
12556;SDS011;6344;49.932;8.308;2023-07-16T09:06:30;4.47;;;3.80;;
12556;SDS011;6344;49.932;8.308;2023-07-16T09:08:56;5.73;;;4.20;;
12556;SDS011;6344;49.932;8.308;2023-07-16T09:11:23;5.70;;;3.93;;
12556;SDS011;6344;49.932;8.308;2023-07-16T09:13:51;3.87;;;3.40;;
12556;SDS011;6344;49.932;8.308;2023-07-16T09:16:18;6.27;;;4.20;;
12556;SDS011;6344;49.932;8.308;2023-07-16T09:18:46;4.37;;;3.97;;
12556;SDS011;6344;49.932;8.308;2023-07-16T09:21:12;4.47;;;4.07;;
12556;SDS011;6344;49.932;8.308;2023-07-16T09:23:39;4.70;;;4.17;;
12556;SDS011;6344;49.932;8.308;2023-07-16T09:26:08;6.23;;;4.13;;
12556;SDS011;6344;49.932;8.308;2023-07-16T09:28:34;6.93;;;3.93;;
12556;SDS011;6344;49.932;8.308;2023-07-16T09:31:06;4.40;;;4.00;;
12556;SDS011;6344;49.932;8.308;2023-07-16T09:33:33;4.63;;;4.23;;
12556;SDS011;6344;49.932;8.308;2023-07-16T09:36:00;4.83;;;4.37;;
12556;SDS011;6344;49.932;8.308;2023-07-16T09:38:28;5.30;;;4.57;;
12556;SDS011;6344;49.932;8.308;2023-07-16T09:40:55;5.10;;;4.63;;
12556;SDS011;6344;49.932;8.308;2023-07-16T09:43:22;4.10;;;3.70;;
12556;SDS011;6344;49.932;8.308;2023-07-16T09:45:49;5.37;;;4.53;;
12556;SDS011;6344;49.932;8.308;2023-07-16T09:48:17;4.60;;;4.20;;
12556;SDS011;6344;49.932;8.308;2023-07-16T09:50:45;5.40;;;4.80;;
12556;SDS011;6344;49.932;8.308;2023-07-16T09:53:18;5.60;;;4.37;;
12556;SDS011;6344;49.932;8.308;2023-07-16T09:55:46;5.10;;;4.37;;
12556;SDS011;6344;49.932;8.308;2023-07-16T09:58:14;4.23;;;3.20;;
12556;SDS011;6344;49.932;8.308;2023-07-16T10:00:44;4.07;;;3.67;;
12556;SDS011;6344;49.932;8.308;2023-07-16T10:03:14;4.70;;;4.27;;
12556;SDS011;6344;49.932;8.308;2023-07-16T10:05:43;5.77;;;4.13;;
12556;SDS011;6344;49.932;8.308;2023-07-16T10:08:15;6.60;;;4.60;;
12556;SDS011;6344;49.932;8.308;2023-07-16T10:10:44;5.07;;;4.50;;
12556;SDS011;6344;49.932;8.308;2023-07-16T10:13:13;5.00;;;3.87;;
12556;SDS011;6344;49.932;8.308;2023-07-16T10:15:50;5.60;;;4.20;;
12556;SDS011;6344;49.932;8.308;2023-07-16T10:18:25;4.03;;;3.73;;
12556;SDS011;6344;49.932;8.308;2023-07-16T10:20:59;5.73;;;3.40;;
12556;SDS011;6344;49.932;8.308;2023-07-16T10:23:35;3.40;;;3.10;;
12556;SDS011;6344;49.932;8.308;2023-07-16T10:26:03;3.63;;;3.43;;
12556;SDS011;6344;49.932;8.308;2023-07-16T10:28:31;5.77;;;3.73;;
12556;SDS011;6344;49.932;8.308;2023-07-16T10:30:58;4.50;;;4.10;;
12556;SDS011;6344;49.932;8.308;2023-07-16T10:33:24;4.80;;;4.40;;
12556;SDS011;6344;49.932;8.308;2023-07-16T10:35:51;5.30;;;3.77;;
12556;SDS011;6344;49.932;8.308;2023-07-16T10:38:19;3.90;;;3.60;;
12556;SDS011;6344;49.932;8.308;2023-07-16T10:40:46;4.67;;;3.90;;
12556;SDS011;6344;49.932;8.308;2023-07-16T10:43:13;4.37;;;4.07;;
12556;SDS011;6344;49.932;8.308;2023-07-16T10:45:40;4.83;;;3.73;;
12556;SDS011;6344;49.932;8.308;2023-07-16T10:48:07;6.03;;;3.97;;
12556;SDS011;6344;49.932;8.308;2023-07-16T10:50:34;4.97;;;4.57;;
12556;SDS011;6344;49.932;8.308;2023-07-16T10:53:02;5.60;;;5.10;;
12556;SDS011;6344;49.932;8.308;2023-07-16T10:55:30;3.60;;;3.30;;
12556;SDS011;6344;49.932;8.308;2023-07-16T10:58:03;4.17;;;3.80;;
12556;SDS011;6344;49.932;8.308;2023-07-16T11:00:31;3.83;;;3.50;;
12556;SDS011;6344;49.932;8.308;2023-07-16T11:03:02;3.90;;;3.60;;
12556;SDS011;6344;49.932;8.308;2023-07-16T11:05:29;3.77;;;3.47;;
12556;SDS011;6344;49.932;8.308;2023-07-16T11:07:55;4.70;;;4.30;;
12556;SDS011;6344;49.932;8.308;2023-07-16T11:10:22;3.50;;;3.30;;
12556;SDS011;6344;49.932;8.308;2023-07-16T11:12:52;4.20;;;3.90;;
12556;SDS011;6344;49.932;8.308;2023-07-16T11:15:29;3.50;;;3.23;;
12556;SDS011;6344;49.932;8.308;2023-07-16T11:17:57;3.80;;;3.50;;
12556;SDS011;6344;49.932;8.308;2023-07-16T11:20:23;3.70;;;3.40;;
12556;SDS011;6344;49.932;8.308;2023-07-16T11:22:50;5.80;;;4.30;;
12556;SDS011;6344;49.932;8.308;2023-07-16T11:25:17;3.83;;;3.53;;
12556;SDS011;6344;49.932;8.308;2023-07-16T11:27:45;4.50;;;3.80;;
12556;SDS011;6344;49.932;8.308;2023-07-16T11:30:13;4.50;;;4.10;;
12556;SDS011;6344;49.932;8.308;2023-07-16T11:32:41;4.50;;;4.10;;
12556;SDS011;6344;49.932;8.308;2023-07-16T11:35:11;5.70;;;4.00;;
12556;SDS011;6344;49.932;8.308;2023-07-16T11:37:42;4.50;;;3.70;;
12556;SDS011;6344;49.932;8.308;2023-07-16T11:40:10;6.20;;;4.03;;
12556;SDS011;6344;49.932;8.308;2023-07-16T11:42:38;4.20;;;3.90;;
12556;SDS011;6344;49.932;8.308;2023-07-16T11:45:14;4.40;;;4.00;;
12556;SDS011;6344;49.932;8.308;2023-07-16T11:47:43;3.73;;;3.47;;
12556;SDS011;6344;49.932;8.308;2023-07-16T11:50:09;6.43;;;4.27;;
12556;SDS011;6344;49.932;8.308;2023-07-16T11:52:37;4.10;;;3.90;;
12556;SDS011;6344;49.932;8.308;2023-07-16T11:55:05;5.07;;;3.70;;
12556;SDS011;6344;49.932;8.308;2023-07-16T11:57:32;4.63;;;4.33;;
12556;SDS011;6344;49.932;8.308;2023-07-16T11:59:59;4.03;;;3.73;;
12556;SDS011;6344;49.932;8.308;2023-07-16T12:02:27;4.23;;;3.93;;
12556;SDS011;6344;49.932;8.308;2023-07-16T12:04:54;4.13;;;3.83;;
12556;SDS011;6344;49.932;8.308;2023-07-16T12:07:30;4.43;;;4.00;;
12556;SDS011;6344;49.932;8.308;2023-07-16T12:09:58;4.73;;;4.33;;
12556;SDS011;6344;49.932;8.308;2023-07-16T12:12:25;4.20;;;3.80;;
12556;SDS011;6344;49.932;8.308;2023-07-16T12:14:51;5.13;;;4.73;;
12556;SDS011;6344;49.932;8.308;2023-07-16T12:17:18;6.20;;;4.50;;
12556;SDS011;6344;49.932;8.308;2023-07-16T12:19:46;4.33;;;4.03;;
12556;SDS011;6344;49.932;8.308;2023-07-16T12:22:13;4.73;;;4.33;;
12556;SDS011;6344;49.932;8.308;2023-07-16T12:24:42;4.70;;;4.40;;
12556;SDS011;6344;49.932;8.308;2023-07-16T12:27:08;5.00;;;4.60;;
12556;SDS011;6344;49.932;8.308;2023-07-16T12:29:35;5.17;;;4.77;;
12556;SDS011;6344;49.932;8.308;2023-07-16T12:32:02;5.83;;;5.27;;
12556;SDS011;6344;49.932;8.308;2023-07-16T12:34:29;5.43;;;4.60;;
12556;SDS011;6344;49.932;8.308;2023-07-16T12:36:56;4.57;;;4.20;;
12556;SDS011;6344;49.932;8.308;2023-07-16T12:39:23;6.00;;;5.40;;
12556;SDS011;6344;49.932;8.308;2023-07-16T12:41:50;5.77;;;5.27;;
12556;SDS011;6344;49.932;8.308;2023-07-16T12:44:16;5.63;;;5.13;;
12556;SDS011;6344;49.932;8.308;2023-07-16T12:46:43;5.20;;;4.70;;
12556;SDS011;6344;49.932;8.308;2023-07-16T12:49:10;6.20;;;5.00;;
12556;SDS011;6344;49.932;8.308;2023-07-16T12:51:36;6.13;;;5.63;;
12556;SDS011;6344;49.932;8.308;2023-07-16T12:54:04;5.63;;;5.23;;
12556;SDS011;6344;49.932;8.308;2023-07-16T12:56:31;4.77;;;4.47;;
12556;SDS011;6344;49.932;8.308;2023-07-16T12:58:58;6.40;;;5.90;;
12556;SDS011;6344;49.932;8.308;2023-07-16T13:01:25;6.13;;;5.63;;
12556;SDS011;6344;49.932;8.308;2023-07-16T13:03:51;4.83;;;4.33;;
12556;SDS011;6344;49.932;8.308;2023-07-16T13:06:18;6.17;;;5.40;;
12556;SDS011;6344;49.932;8.308;2023-07-16T13:08:45;5.70;;;5.20;;
12556;SDS011;6344;49.932;8.308;2023-07-16T13:11:13;5.70;;;5.20;;
12556;SDS011;6344;49.932;8.308;2023-07-16T13:13:39;7.80;;;5.80;;
12556;SDS011;6344;49.932;8.308;2023-07-16T13:16:07;5.57;;;5.07;;
12556;SDS011;6344;49.932;8.308;2023-07-16T13:18:34;5.57;;;5.07;;
12556;SDS011;6344;49.932;8.308;2023-07-16T13:21:01;4.80;;;4.40;;
12556;SDS011;6344;49.932;8.308;2023-07-16T13:23:28;5.03;;;4.73;;
12556;SDS011;6344;49.932;8.308;2023-07-16T13:25:55;6.47;;;5.87;;
12556;SDS011;6344;49.932;8.308;2023-07-16T13:28:23;5.97;;;5.47;;
12556;SDS011;6344;49.932;8.308;2023-07-16T13:30:50;7.93;;;4.67;;
12556;SDS011;6344;49.932;8.308;2023-07-16T13:33:16;5.73;;;5.20;;
12556;SDS011;6344;49.932;8.308;2023-07-16T13:35:44;6.07;;;5.67;;
12556;SDS011;6344;49.932;8.308;2023-07-16T13:38:10;5.43;;;4.90;;
12556;SDS011;6344;49.932;8.308;2023-07-16T13:40:37;5.30;;;4.87;;
12556;SDS011;6344;49.932;8.308;2023-07-16T13:43:03;5.53;;;5.17;;
12556;SDS011;6344;49.932;8.308;2023-07-16T13:45:33;7.40;;;6.03;;
12556;SDS011;6344;49.932;8.308;2023-07-16T13:48:00;5.07;;;4.77;;
12556;SDS011;6344;49.932;8.308;2023-07-16T13:50:27;7.03;;;5.80;;
12556;SDS011;6344;49.932;8.308;2023-07-16T13:52:54;4.70;;;4.40;;
12556;SDS011;6344;49.932;8.308;2023-07-16T13:55:21;5.77;;;5.43;;
12556;SDS011;6344;49.932;8.308;2023-07-16T13:57:47;5.80;;;5.33;;
12556;SDS011;6344;49.932;8.308;2023-07-16T14:00:14;6.93;;;5.43;;
12556;SDS011;6344;49.932;8.308;2023-07-16T14:02:43;5.80;;;5.40;;
12556;SDS011;6344;49.932;8.308;2023-07-16T14:05:11;8.67;;;6.70;;
12556;SDS011;6344;49.932;8.308;2023-07-16T14:07:37;7.23;;;6.73;;
12556;SDS011;6344;49.932;8.308;2023-07-16T14:10:05;5.93;;;5.47;;
12556;SDS011;6344;49.932;8.308;2023-07-16T14:12:32;7.33;;;6.30;;
12556;SDS011;6344;49.932;8.308;2023-07-16T14:14:59;6.63;;;6.10;;
12556;SDS011;6344;49.932;8.308;2023-07-16T14:17:26;6.40;;;6.00;;
12556;SDS011;6344;49.932;8.308;2023-07-16T14:19:54;5.43;;;5.03;;
12556;SDS011;6344;49.932;8.308;2023-07-16T14:22:21;6.70;;;6.10;;
12556;SDS011;6344;49.932;8.308;2023-07-16T14:24:51;6.63;;;6.10;;
12556;SDS011;6344;49.932;8.308;2023-07-16T14:27:18;6.70;;;6.10;;
12556;SDS011;6344;49.932;8.308;2023-07-16T14:29:45;6.37;;;5.90;;
12556;SDS011;6344;49.932;8.308;2023-07-16T14:32:11;6.60;;;6.00;;
12556;SDS011;6344;49.932;8.308;2023-07-16T14:34:38;6.03;;;5.53;;
12556;SDS011;6344;49.932;8.308;2023-07-16T14:37:06;7.37;;;6.10;;
12556;SDS011;6344;49.932;8.308;2023-07-16T14:39:33;7.63;;;6.93;;
12556;SDS011;6344;49.932;8.308;2023-07-16T14:41:59;6.40;;;5.90;;
12556;SDS011;6344;49.932;8.308;2023-07-16T14:44:28;7.10;;;6.57;;
12556;SDS011;6344;49.932;8.308;2023-07-16T14:46:55;7.40;;;6.70;;
12556;SDS011;6344;49.932;8.308;2023-07-16T14:49:21;6.53;;;6.03;;
12556;SDS011;6344;49.932;8.308;2023-07-16T14:51:48;7.43;;;6.77;;
12556;SDS011;6344;49.932;8.308;2023-07-16T14:54:16;7.33;;;6.63;;
12556;SDS011;6344;49.932;8.308;2023-07-16T14:56:43;6.20;;;5.70;;
12556;SDS011;6344;49.932;8.308;2023-07-16T14:59:09;7.63;;;6.93;;
12556;SDS011;6344;49.932;8.308;2023-07-16T15:01:36;7.07;;;6.57;;
12556;SDS011;6344;49.932;8.308;2023-07-16T15:04:03;6.07;;;5.67;;